createdAt,value
2022-09-21T00:02:37.264Z,9.20
2022-09-21T00:05:26.537Z,9.20
2022-09-21T00:08:15.344Z,9.10
2022-09-21T00:11:05.553Z,9.10
2022-09-21T00:13:54.274Z,9.10
2022-09-21T00:16:42.870Z,9.00
2022-09-21T00:19:30.744Z,9.00
2022-09-21T00:22:19.874Z,9.00
2022-09-21T00:25:08.512Z,9.00
2022-09-21T00:27:56.450Z,9.00
2022-09-21T00:30:44.257Z,9.00
2022-09-21T00:33:32.257Z,9.00
2022-09-21T00:36:21.108Z,9.00
2022-09-21T00:39:11.882Z,8.90
2022-09-21T00:41:59.726Z,8.90
2022-09-21T00:44:47.788Z,8.80
2022-09-21T00:47:36.820Z,8.80
2022-09-21T00:50:25.191Z,8.80
2022-09-21T00:53:13.107Z,8.80
2022-09-21T00:56:03.522Z,8.80
2022-09-21T00:58:53.592Z,8.70
2022-09-21T01:01:43.087Z,8.60
2022-09-21T01:04:31.739Z,8.60
2022-09-21T01:07:21.597Z,8.60
2022-09-21T01:10:11.980Z,8.50
2022-09-21T01:13:05.708Z,8.40
2022-09-21T01:15:57.112Z,8.40
2022-09-21T01:18:47.778Z,8.30
2022-09-21T01:21:37.421Z,8.30
2022-09-21T01:24:35.921Z,8.30
2022-09-21T01:27:39.250Z,8.20
2022-09-21T01:30:30.208Z,8.20
2022-09-21T01:33:20.053Z,8.30
2022-09-21T01:36:09.760Z,8.30
2022-09-21T01:38:59.722Z,8.30
2022-09-21T01:41:48.782Z,8.30
2022-09-21T01:44:39.008Z,8.20
2022-09-21T01:47:31.578Z,8.20
2022-09-21T01:50:21.407Z,8.10
2022-09-21T01:53:11.464Z,8.10
2022-09-21T01:56:00.958Z,8.10
2022-09-21T01:58:51.177Z,8.10
2022-09-21T02:01:43.522Z,8.00
2022-09-21T02:04:35.156Z,8.00
2022-09-21T02:07:23.157Z,8.00
2022-09-21T02:10:14.220Z,8.00
2022-09-21T02:13:05.480Z,8.00
2022-09-21T02:16:01.991Z,7.90
2022-09-21T02:18:56.895Z,7.90
2022-09-21T02:21:50.594Z,7.80
2022-09-21T02:24:41.427Z,7.90
2022-09-21T02:27:33.223Z,7.80
2022-09-21T02:30:21.732Z,7.80
2022-09-21T02:33:12.719Z,7.80
2022-09-21T02:36:03.155Z,7.80
2022-09-21T02:38:54.208Z,7.80
2022-09-21T02:41:45.626Z,7.70
2022-09-21T02:44:35.450Z,7.50
2022-09-21T02:47:25.327Z,7.60
2022-09-21T02:50:15.290Z,7.60
2022-09-21T02:53:05.673Z,7.60
2022-09-21T02:55:56.685Z,7.60
2022-09-21T02:58:47.602Z,7.60
2022-09-21T03:01:35.939Z,7.60
2022-09-21T03:04:24.200Z,7.50
2022-09-21T03:07:12.000Z,7.60
2022-09-21T03:09:59.824Z,7.60
2022-09-21T03:12:49.020Z,7.60
2022-09-21T03:15:36.948Z,7.50
2022-09-21T03:18:24.808Z,7.60
2022-09-21T03:21:12.820Z,7.50
2022-09-21T03:24:00.633Z,7.40
2022-09-21T03:26:48.566Z,7.40
2022-09-21T03:29:37.734Z,7.40
2022-09-21T03:32:26.871Z,7.40
2022-09-21T03:35:14.725Z,7.40
2022-09-21T03:38:02.653Z,7.40
2022-09-21T03:40:50.971Z,7.40
2022-09-21T03:43:41.982Z,7.40
2022-09-21T03:46:31.238Z,7.40
2022-09-21T03:49:19.133Z,7.50
2022-09-21T03:52:06.951Z,7.40
2022-09-21T03:54:55.318Z,7.40
2022-09-21T03:57:43.100Z,7.30
2022-09-21T04:00:30.964Z,7.20
2022-09-21T04:03:20.130Z,7.20
2022-09-21T04:06:09.804Z,7.20
2022-09-21T04:08:57.616Z,7.20
2022-09-21T04:11:45.923Z,7.20
2022-09-21T04:14:33.715Z,7.30
2022-09-21T04:17:21.581Z,7.30
2022-09-21T04:20:10.840Z,7.30
2022-09-21T04:22:59.518Z,7.30
2022-09-21T04:25:48.256Z,7.30
2022-09-21T04:28:36.053Z,7.20
2022-09-21T04:31:24.415Z,7.20
2022-09-21T04:34:14.371Z,7.20
2022-09-21T04:37:03.663Z,7.10
2022-09-21T04:39:51.508Z,7.10
2022-09-21T04:42:39.311Z,7.10
2022-09-21T04:45:27.191Z,7.10
2022-09-21T04:48:15.315Z,7.10
2022-09-21T04:51:03.468Z,7.10
2022-09-21T04:53:52.598Z,7.10
2022-09-21T04:56:40.455Z,7.10
2022-09-21T04:59:28.379Z,7.10
2022-09-21T05:02:16.203Z,7.00
2022-09-21T05:05:04.093Z,7.00
2022-09-21T05:07:51.964Z,7.00
2022-09-21T05:10:40.160Z,7.00
2022-09-21T05:13:28.013Z,7.00
2022-09-21T05:16:15.867Z,7.10
2022-09-21T05:19:03.733Z,7.10
2022-09-21T05:21:51.579Z,7.10
2022-09-21T05:24:39.391Z,7.10
2022-09-21T05:27:28.664Z,7.10
2022-09-21T05:30:16.908Z,7.10
2022-09-21T05:33:05.380Z,7.00
2022-09-21T05:35:59.916Z,7.00
2022-09-21T05:38:47.985Z,7.00
2022-09-21T05:41:36.224Z,7.00
2022-09-21T05:44:25.852Z,7.00
2022-09-21T05:47:23.009Z,7.00
2022-09-21T05:50:20.047Z,7.10
2022-09-21T05:53:13.463Z,7.00
2022-09-21T05:56:04.111Z,7.10
2022-09-21T05:58:57.232Z,7.10
2022-09-21T06:01:54.271Z,7.10
2022-09-21T06:04:42.395Z,7.20
2022-09-21T06:07:30.208Z,7.20
2022-09-21T06:10:18.246Z,7.30
2022-09-21T06:13:06.031Z,7.30
2022-09-21T06:15:54.014Z,7.50
2022-09-21T06:18:43.434Z,7.60
2022-09-21T06:21:31.227Z,7.70
2022-09-21T06:24:19.066Z,7.70
2022-09-21T06:27:06.916Z,7.80
2022-09-21T06:29:54.742Z,7.80
2022-09-21T06:32:42.547Z,7.90
2022-09-21T06:35:32.340Z,7.90
2022-09-21T06:38:20.134Z,8.00
2022-09-21T06:41:07.951Z,8.00
2022-09-21T06:43:57.107Z,8.10
2022-09-21T06:46:45.011Z,8.10
2022-09-21T06:49:32.932Z,8.20
2022-09-21T06:52:22.089Z,8.20
2022-09-21T06:55:10.691Z,8.40
2022-09-21T06:58:01.229Z,8.50
2022-09-21T07:00:49.220Z,8.60
2022-09-21T07:03:37.088Z,8.60
2022-09-21T07:06:24.912Z,8.70
2022-09-21T07:12:22.000Z,8.90
2022-09-21T07:15:10.490Z,8.90
2022-09-21T07:18:06.002Z,9.00
2022-09-21T07:20:54.956Z,9.10
2022-09-21T07:23:42.717Z,9.20
2022-09-21T07:26:31.995Z,9.30
2022-09-21T07:29:19.799Z,9.40
2022-09-21T07:32:07.625Z,9.50
2022-09-21T07:34:56.506Z,9.50
2022-09-21T07:37:44.356Z,9.60
2022-09-21T07:40:32.731Z,9.70
2022-09-21T07:43:21.904Z,9.80
2022-09-21T07:46:10.892Z,9.80
2022-09-21T07:48:58.824Z,9.90
2022-09-21T07:51:46.620Z,10.10
2022-09-21T07:54:34.446Z,10.10
2022-09-21T07:57:39.849Z,10.20
2022-09-21T08:00:32.758Z,10.20
2022-09-21T08:03:20.997Z,10.40
2022-09-21T08:06:09.302Z,10.40
2022-09-21T08:08:58.186Z,10.50
2022-09-21T08:11:47.135Z,10.60
2022-09-21T08:14:35.818Z,10.70
2022-09-21T08:17:25.031Z,10.80
2022-09-21T08:20:13.867Z,10.90
2022-09-21T08:23:02.328Z,11.00
2022-09-21T08:25:50.217Z,11.20
2022-09-21T08:28:38.714Z,11.30
2022-09-21T08:31:26.862Z,11.40
2022-09-21T08:34:16.140Z,11.50
2022-09-21T08:37:03.970Z,11.60
2022-09-21T08:39:51.754Z,11.70
2022-09-21T08:42:41.030Z,11.80
2022-09-21T08:45:33.252Z,11.90
2022-09-21T08:48:27.713Z,11.90
2022-09-21T08:51:22.046Z,12.10
2022-09-21T08:54:15.092Z,12.20
2022-09-21T08:57:05.809Z,12.20
2022-09-21T08:59:54.095Z,12.40
2022-09-21T09:02:50.264Z,12.50
2022-09-21T09:05:43.744Z,12.50
2022-09-21T09:08:56.341Z,12.60
2022-09-21T09:11:56.123Z,12.70
2022-09-21T09:14:50.528Z,12.80
2022-09-21T09:17:45.449Z,12.90
2022-09-21T09:20:35.660Z,13.00
2022-09-21T09:23:25.114Z,13.10
2022-09-21T09:26:16.641Z,13.30
2022-09-21T09:29:08.476Z,13.30
2022-09-21T09:31:56.848Z,13.30
2022-09-21T09:34:46.723Z,13.30
2022-09-21T09:37:39.398Z,13.30
2022-09-21T09:40:36.909Z,13.40
2022-09-21T09:43:31.706Z,13.40
2022-09-21T09:46:25.252Z,13.30
2022-09-21T09:49:23.271Z,13.30
2022-09-21T09:52:12.729Z,13.20
2022-09-21T09:55:01.067Z,13.20
2022-09-21T09:57:49.299Z,13.20
2022-09-21T10:00:37.071Z,13.20
2022-09-21T10:03:27.204Z,13.20
2022-09-21T10:06:23.426Z,13.20
2022-09-21T10:09:24.052Z,13.20
2022-09-21T10:12:18.635Z,13.20
2022-09-21T10:15:11.704Z,13.20
2022-09-21T10:18:08.438Z,13.10
2022-09-21T10:20:58.849Z,13.20
2022-09-21T10:23:48.510Z,13.30
2022-09-21T10:26:37.849Z,13.30
2022-09-21T10:29:41.041Z,13.30
2022-09-21T10:32:29.849Z,13.30
2022-09-21T10:35:19.163Z,13.30
2022-09-21T10:38:12.201Z,13.50
2022-09-21T10:41:00.055Z,13.60
2022-09-21T10:43:50.018Z,13.90
2022-09-21T10:46:38.023Z,14.00
2022-09-21T10:49:26.878Z,14.00
2022-09-21T10:52:15.052Z,14.00
2022-09-21T10:55:04.457Z,14.00
2022-09-21T10:57:53.293Z,14.10
2022-09-21T11:00:42.247Z,14.20
2022-09-21T11:03:45.653Z,14.40
2022-09-21T11:06:38.047Z,14.60
2022-09-21T11:09:27.730Z,14.80
2022-09-21T11:12:26.474Z,15.10
2022-09-21T11:15:18.097Z,15.30
2022-09-21T11:18:08.012Z,15.40
2022-09-21T11:20:57.546Z,15.60
2022-09-21T11:23:50.907Z,15.70
2022-09-21T11:29:39.899Z,16.10
2022-09-21T11:32:35.849Z,16.20
2022-09-21T11:35:47.979Z,16.30
2022-09-21T11:38:43.219Z,16.40
2022-09-21T11:41:41.285Z,16.50
2022-09-21T11:44:34.741Z,16.50
2022-09-21T11:47:32.517Z,16.40
2022-09-21T11:50:34.685Z,16.30
2022-09-21T11:53:29.725Z,16.30
2022-09-21T11:56:35.500Z,16.10
2022-09-21T11:59:30.461Z,16.00
2022-09-21T12:02:35.629Z,15.90
2022-09-21T12:05:26.157Z,15.80
2022-09-21T12:08:22.171Z,15.80
2022-09-21T12:11:14.939Z,15.80
2022-09-21T12:14:07.795Z,15.80
2022-09-21T12:16:59.057Z,15.80
2022-09-21T12:19:51.662Z,15.70
2022-09-21T12:22:41.308Z,15.80
2022-09-21T12:25:32.160Z,15.70
2022-09-21T12:28:22.770Z,15.70
2022-09-21T12:31:13.269Z,15.70
2022-09-21T12:34:03.523Z,15.70
2022-09-21T12:36:59.646Z,15.70
2022-09-21T12:39:50.644Z,15.60
2022-09-21T12:42:41.427Z,15.60
2022-09-21T12:45:30.959Z,15.60
2022-09-21T12:48:21.206Z,15.60
2022-09-21T12:51:13.322Z,15.60
2022-09-21T12:54:08.743Z,15.60
2022-09-21T12:57:03.821Z,15.60
2022-09-21T13:00:03.750Z,15.60
2022-09-21T13:02:54.874Z,15.60
2022-09-21T13:05:50.733Z,15.70
2022-09-21T13:08:39.535Z,15.80
2022-09-21T13:11:28.822Z,15.80
2022-09-21T13:14:18.215Z,15.80
2022-09-21T13:17:06.672Z,15.80
2022-09-21T13:19:58.987Z,15.90
2022-09-21T13:22:48.013Z,16.00
2022-09-21T13:25:37.727Z,16.30
2022-09-21T13:28:41.495Z,16.50
2022-09-21T13:31:40.392Z,16.70
2022-09-21T13:34:30.264Z,16.90
2022-09-21T13:37:32.962Z,17.10
2022-09-21T13:40:38.816Z,17.30
2022-09-21T13:43:46.900Z,17.40
2022-09-21T13:46:55.868Z,17.70
2022-09-21T13:49:46.172Z,17.90
2022-09-21T13:52:43.660Z,18.00
2022-09-21T13:55:32.675Z,18.20
2022-09-21T13:58:22.141Z,18.20
2022-09-21T14:01:35.424Z,18.40
2022-09-21T14:04:26.325Z,18.50
2022-09-21T14:07:14.324Z,18.60
2022-09-21T14:10:03.715Z,18.70
2022-09-21T14:12:51.760Z,18.90
2022-09-21T14:15:40.734Z,19.00
2022-09-21T14:18:47.613Z,19.10
2022-09-21T14:21:37.290Z,19.30
2022-09-21T14:24:37.039Z,19.40
2022-09-21T14:27:28.066Z,19.50
2022-09-21T14:30:19.882Z,19.60
2022-09-21T14:33:15.662Z,19.70
2022-09-21T14:36:07.795Z,19.90
2022-09-21T14:39:00.494Z,20.00
2022-09-21T14:41:50.040Z,20.10
2022-09-21T14:44:38.585Z,20.20
2022-09-21T14:47:44.389Z,20.20
2022-09-21T14:50:34.207Z,20.40
2022-09-21T14:53:29.287Z,20.60
2022-09-21T14:56:24.195Z,20.70
2022-09-21T14:59:21.789Z,20.90
2022-09-21T15:02:16.039Z,20.90
2022-09-21T15:05:14.888Z,21.10
2022-09-21T15:08:29.603Z,21.30
2022-09-21T15:11:23.350Z,21.30
2022-09-21T15:14:16.933Z,21.20
2022-09-21T15:17:19.411Z,21.20
2022-09-21T15:20:16.759Z,21.10
2022-09-21T15:23:18.406Z,21.20
2022-09-21T15:26:09.690Z,21.40
2022-09-21T15:29:09.213Z,21.50
2022-09-21T15:31:59.717Z,21.30
2022-09-21T15:34:47.612Z,20.90
2022-09-21T15:37:36.257Z,21.00
2022-09-21T15:40:24.959Z,20.40
2022-09-21T15:43:19.897Z,20.50
2022-09-21T15:46:12.175Z,20.60
2022-09-21T15:49:01.892Z,20.60
2022-09-21T15:51:53.286Z,20.70
2022-09-21T15:54:42.758Z,20.60
2022-09-21T15:57:38.794Z,20.40
2022-09-21T16:00:27.931Z,20.40
2022-09-21T16:03:19.325Z,20.30
2022-09-21T16:06:25.728Z,20.40
2022-09-21T16:09:30.356Z,20.40
2022-09-21T16:12:42.272Z,20.30
2022-09-21T16:15:31.938Z,20.30
2022-09-21T16:18:30.490Z,20.30
2022-09-21T16:21:24.358Z,20.30
2022-09-21T16:24:18.943Z,20.10
2022-09-21T16:27:06.947Z,19.80
2022-09-21T16:29:55.583Z,19.50
2022-09-21T16:32:43.814Z,19.10
2022-09-21T16:35:40.863Z,18.70
2022-09-21T16:38:30.304Z,18.60
2022-09-21T16:41:19.083Z,18.50
2022-09-21T16:44:07.102Z,18.50
2022-09-21T16:46:56.591Z,18.50
2022-09-21T16:49:44.826Z,18.20
2022-09-21T16:52:32.659Z,17.90
2022-09-21T16:55:25.585Z,17.80
2022-09-21T16:58:16.125Z,17.40
2022-09-21T17:01:04.083Z,17.20
2022-09-21T17:03:51.940Z,16.90
2022-09-21T17:06:40.033Z,16.70
2022-09-21T17:09:30.018Z,16.50
2022-09-21T17:12:19.342Z,16.40
2022-09-21T17:15:07.842Z,16.20
2022-09-21T17:17:58.936Z,16.10
2022-09-21T17:20:47.364Z,16.00
2022-09-21T17:23:36.125Z,15.80
2022-09-21T17:26:23.965Z,15.70
2022-09-21T17:29:19.398Z,15.60
2022-09-21T17:32:10.420Z,15.50
2022-09-21T17:35:01.613Z,15.30
2022-09-21T17:37:49.503Z,15.20
2022-09-21T17:40:39.407Z,15.10
2022-09-21T17:43:39.076Z,15.00
2022-09-21T17:46:31.944Z,14.90
2022-09-21T17:49:20.095Z,14.80
2022-09-21T17:52:28.537Z,14.70
2022-09-21T17:55:16.589Z,14.60
2022-09-21T17:58:09.904Z,14.50
2022-09-21T18:01:01.362Z,14.40
2022-09-21T18:03:50.985Z,14.30
2022-09-21T18:06:39.085Z,14.20
2022-09-21T18:09:27.192Z,14.20
2022-09-21T18:12:25.856Z,14.10
2022-09-21T18:15:22.993Z,14.00
2022-09-21T18:18:17.763Z,14.00
2022-09-21T18:21:10.253Z,13.90
2022-09-21T18:24:19.200Z,13.80
2022-09-21T18:27:07.405Z,13.80
2022-09-21T18:29:55.336Z,13.70
2022-09-21T18:32:49.427Z,13.60
2022-09-21T18:35:45.541Z,13.50
2022-09-21T18:38:38.298Z,13.50
2022-09-21T18:41:34.247Z,13.40
2022-09-21T18:44:25.194Z,13.30
2022-09-21T18:47:16.327Z,13.30
2022-09-21T18:50:06.326Z,13.30
2022-09-21T18:52:57.272Z,13.20
2022-09-21T18:55:49.632Z,13.20
2022-09-21T18:58:39.506Z,13.20
2022-09-21T19:01:29.813Z,13.10
2022-09-21T19:04:18.687Z,13.00
2022-09-21T19:07:14.233Z,13.00
2022-09-21T19:10:08.046Z,12.90
2022-09-21T19:13:06.144Z,12.80
2022-09-21T19:16:00.951Z,12.80
2022-09-21T19:18:55.951Z,12.70
2022-09-21T19:21:46.791Z,12.60
2022-09-21T19:24:38.933Z,12.60
2022-09-21T19:27:29.233Z,12.60
2022-09-21T19:30:18.919Z,12.50
2022-09-21T19:33:32.428Z,12.50
2022-09-21T19:36:24.704Z,12.40
2022-09-21T19:39:12.828Z,12.40
2022-09-21T19:42:05.090Z,12.30
2022-09-21T19:45:05.460Z,12.30
2022-09-21T19:47:55.453Z,12.20
2022-09-21T19:50:46.613Z,12.10
2022-09-21T19:53:52.210Z,12.00
2022-09-21T19:57:01.798Z,11.90
2022-09-21T19:59:51.388Z,11.90
2022-09-21T20:02:43.031Z,11.80
2022-09-21T20:05:36.246Z,11.80
2022-09-21T20:08:27.492Z,11.80
2022-09-21T20:11:19.048Z,11.80
2022-09-21T20:14:12.534Z,11.90
2022-09-21T20:17:02.108Z,11.80
2022-09-21T20:19:53.045Z,11.80
2022-09-21T20:22:42.643Z,11.80
2022-09-21T20:25:32.319Z,11.80
2022-09-21T20:28:20.644Z,11.80
2022-09-21T20:31:09.964Z,11.80
2022-09-21T20:33:57.832Z,11.80
2022-09-21T20:36:46.769Z,11.70
2022-09-21T20:39:35.959Z,11.70
2022-09-21T20:42:25.047Z,11.70
2022-09-21T20:45:13.634Z,11.60
2022-09-21T20:48:13.259Z,11.50
2022-09-21T20:51:03.071Z,11.50
2022-09-21T20:53:51.469Z,11.40
2022-09-21T20:56:40.596Z,11.40
2022-09-21T20:59:28.569Z,11.40
2022-09-21T21:02:17.065Z,11.30
2022-09-21T21:05:05.574Z,11.30
2022-09-21T21:07:53.389Z,11.10
2022-09-21T21:10:45.347Z,11.10
2022-09-21T21:13:34.634Z,11.00
2022-09-21T21:16:22.657Z,11.00
2022-09-21T21:19:10.528Z,10.90
2022-09-21T21:21:58.352Z,10.90
2022-09-21T21:24:46.171Z,10.80
2022-09-21T21:27:34.034Z,10.80
2022-09-21T21:30:25.268Z,10.70
2022-09-21T21:33:13.255Z,10.70
2022-09-21T21:36:04.271Z,10.70
2022-09-21T21:38:52.395Z,10.60
2022-09-21T21:41:40.911Z,10.60
2022-09-21T21:44:30.757Z,10.50
2022-09-21T21:47:39.688Z,10.50
2022-09-21T21:50:28.008Z,10.50
2022-09-21T21:53:15.852Z,10.40
2022-09-21T21:56:04.803Z,10.30
2022-09-21T21:58:53.275Z,10.30
2022-09-21T22:01:41.113Z,10.20
2022-09-21T22:04:30.745Z,10.40
2022-09-21T22:07:18.575Z,10.30
2022-09-21T22:10:08.858Z,10.30
2022-09-21T22:12:58.147Z,10.30
2022-09-21T22:15:46.187Z,10.20
2022-09-21T22:18:34.936Z,10.20
2022-09-21T22:21:26.173Z,10.10
2022-09-21T22:24:14.584Z,10.10
2022-09-21T22:27:02.391Z,10.00
2022-09-21T22:29:50.163Z,10.00
2022-09-21T22:32:37.979Z,9.90
2022-09-21T22:35:25.807Z,9.90
2022-09-21T22:38:14.938Z,9.90
2022-09-21T22:41:03.553Z,9.80
2022-09-21T22:43:52.291Z,9.80
2022-09-21T22:46:40.407Z,9.80
2022-09-21T22:49:28.409Z,9.80
2022-09-21T22:52:16.315Z,9.80
2022-09-21T22:55:05.837Z,9.70
2022-09-21T22:57:53.660Z,9.70
2022-09-21T23:00:42.225Z,9.60
2022-09-21T23:03:30.181Z,9.60
2022-09-21T23:06:19.253Z,9.60
2022-09-21T23:09:08.079Z,9.60
2022-09-21T23:11:57.464Z,9.60
2022-09-21T23:14:45.565Z,9.50
2022-09-21T23:17:33.740Z,9.50
2022-09-21T23:20:21.526Z,9.50
2022-09-21T23:23:10.210Z,9.40
2022-09-21T23:26:01.665Z,9.40
2022-09-21T23:28:53.463Z,9.40
2022-09-21T23:31:45.027Z,9.40
2022-09-21T23:34:33.747Z,9.40
2022-09-21T23:37:21.568Z,9.40
2022-09-21T23:40:10.097Z,9.40
2022-09-21T23:42:59.274Z,9.40
2022-09-21T23:45:48.501Z,9.30
2022-09-21T23:48:36.411Z,9.20
2022-09-21T23:51:24.232Z,9.20
2022-09-21T23:54:12.553Z,9.20
2022-09-21T23:57:00.347Z,9.20
2022-09-21T23:59:48.268Z,9.10
